sensor_id;sensor_type;location;lat;lon;timestamp;P1;durP1;ratioP1;P2;durP2;ratioP2
1731;SDS011;863;52.268;8.834;2022-08-06T00:01:32;1.47;;;0.63;;
1731;SDS011;863;52.268;8.834;2022-08-06T00:03:57;1.00;;;0.60;;
1731;SDS011;863;52.268;8.834;2022-08-06T00:06:22;0.85;;;0.50;;
1731;SDS011;863;52.268;8.834;2022-08-06T00:08:47;1.30;;;0.60;;
1731;SDS011;863;52.268;8.834;2022-08-06T00:11:13;0.97;;;0.70;;
1731;SDS011;863;52.268;8.834;2022-08-06T00:13:38;1.93;;;0.63;;
1731;SDS011;863;52.268;8.834;2022-08-06T00:16:03;0.90;;;0.50;;
1731;SDS011;863;52.268;8.834;2022-08-06T00:18:28;1.05;;;0.60;;
1731;SDS011;863;52.268;8.834;2022-08-06T00:20:54;1.50;;;0.60;;
1731;SDS011;863;52.268;8.834;2022-08-06T00:23:19;1.77;;;0.90;;
1731;SDS011;863;52.268;8.834;2022-08-06T00:25:45;1.57;;;0.80;;
1731;SDS011;863;52.268;8.834;2022-08-06T00:28:10;1.00;;;0.70;;
1731;SDS011;863;52.268;8.834;2022-08-06T00:30:35;1.77;;;0.80;;
1731;SDS011;863;52.268;8.834;2022-08-06T00:33:01;2.03;;;0.67;;
1731;SDS011;863;52.268;8.834;2022-08-06T00:35:26;0.90;;;0.70;;
1731;SDS011;863;52.268;8.834;2022-08-06T00:37:51;1.73;;;0.80;;
1731;SDS011;863;52.268;8.834;2022-08-06T00:40:16;1.70;;;0.80;;
1731;SDS011;863;52.268;8.834;2022-08-06T00:42:43;1.33;;;0.70;;
1731;SDS011;863;52.268;8.834;2022-08-06T00:45:08;1.57;;;0.70;;
1731;SDS011;863;52.268;8.834;2022-08-06T00:47:33;2.50;;;0.90;;
1731;SDS011;863;52.268;8.834;2022-08-06T00:49:59;1.90;;;0.90;;
1731;SDS011;863;52.268;8.834;2022-08-06T00:52:24;1.30;;;0.75;;
1731;SDS011;863;52.268;8.834;2022-08-06T00:54:49;1.07;;;0.80;;
1731;SDS011;863;52.268;8.834;2022-08-06T00:57:14;1.40;;;0.60;;
1731;SDS011;863;52.268;8.834;2022-08-06T00:59:39;1.00;;;0.70;;
1731;SDS011;863;52.268;8.834;2022-08-06T01:02:04;1.57;;;0.80;;
1731;SDS011;863;52.268;8.834;2022-08-06T01:04:30;1.13;;;0.70;;
1731;SDS011;863;52.268;8.834;2022-08-06T01:06:55;1.17;;;0.70;;
1731;SDS011;863;52.268;8.834;2022-08-06T01:09:20;1.70;;;0.67;;
1731;SDS011;863;52.268;8.834;2022-08-06T01:11:45;1.00;;;0.60;;
1731;SDS011;863;52.268;8.834;2022-08-06T01:14:10;0.97;;;0.70;;
1731;SDS011;863;52.268;8.834;2022-08-06T01:19:03;1.88;;;0.80;;
1731;SDS011;863;52.268;8.834;2022-08-06T01:24:30;1.30;;;0.90;;
1731;SDS011;863;52.268;8.834;2022-08-06T01:29:28;1.52;;;0.60;;
1731;SDS011;863;52.268;8.834;2022-08-06T01:32:05;1.40;;;0.60;;
1731;SDS011;863;52.268;8.834;2022-08-06T01:34:41;1.23;;;0.60;;
1731;SDS011;863;52.268;8.834;2022-08-06T01:39:52;1.17;;;0.60;;
1731;SDS011;863;52.268;8.834;2022-08-06T01:42:18;1.20;;;0.60;;
1731;SDS011;863;52.268;8.834;2022-08-06T01:44:45;1.00;;;0.50;;
1731;SDS011;863;52.268;8.834;2022-08-06T01:47:11;1.93;;;0.53;;
1731;SDS011;863;52.268;8.834;2022-08-06T01:49:37;0.90;;;0.60;;
1731;SDS011;863;52.268;8.834;2022-08-06T01:52:04;1.00;;;0.60;;
1731;SDS011;863;52.268;8.834;2022-08-06T01:54:30;1.23;;;0.60;;
1731;SDS011;863;52.268;8.834;2022-08-06T01:56:59;1.23;;;0.57;;
1731;SDS011;863;52.268;8.834;2022-08-06T01:59:31;0.80;;;0.60;;
1731;SDS011;863;52.268;8.834;2022-08-06T02:01:57;1.83;;;0.50;;
1731;SDS011;863;52.268;8.834;2022-08-06T02:04:24;2.33;;;0.50;;
1731;SDS011;863;52.268;8.834;2022-08-06T02:06:50;1.43;;;0.90;;
1731;SDS011;863;52.268;8.834;2022-08-06T02:09:17;1.80;;;0.53;;
1731;SDS011;863;52.268;8.834;2022-08-06T02:11:43;1.20;;;0.60;;
1731;SDS011;863;52.268;8.834;2022-08-06T02:14:12;0.77;;;0.40;;
1731;SDS011;863;52.268;8.834;2022-08-06T02:16:38;1.00;;;0.50;;
1731;SDS011;863;52.268;8.834;2022-08-06T02:19:04;1.23;;;0.70;;
1731;SDS011;863;52.268;8.834;2022-08-06T02:21:30;2.17;;;0.60;;
1731;SDS011;863;52.268;8.834;2022-08-06T02:23:56;1.40;;;0.57;;
1731;SDS011;863;52.268;8.834;2022-08-06T02:26:23;0.80;;;0.50;;
1731;SDS011;863;52.268;8.834;2022-08-06T02:28:49;0.90;;;0.60;;
1731;SDS011;863;52.268;8.834;2022-08-06T02:31:17;0.77;;;0.47;;
1731;SDS011;863;52.268;8.834;2022-08-06T02:33:42;3.00;;;0.60;;
1731;SDS011;863;52.268;8.834;2022-08-06T02:36:12;2.00;;;0.70;;
1731;SDS011;863;52.268;8.834;2022-08-06T02:41:20;1.10;;;0.50;;
1731;SDS011;863;52.268;8.834;2022-08-06T02:43:59;1.17;;;0.53;;
1731;SDS011;863;52.268;8.834;2022-08-06T02:46:28;4.90;;;0.60;;
1731;SDS011;863;52.268;8.834;2022-08-06T02:49:00;0.90;;;0.63;;
1731;SDS011;863;52.268;8.834;2022-08-06T02:51:36;1.13;;;0.50;;
1731;SDS011;863;52.268;8.834;2022-08-06T02:54:04;3.03;;;0.63;;
1731;SDS011;863;52.268;8.834;2022-08-06T02:56:31;1.00;;;0.60;;
1731;SDS011;863;52.268;8.834;2022-08-06T02:58:57;0.97;;;0.50;;
1731;SDS011;863;52.268;8.834;2022-08-06T03:01:25;0.97;;;0.53;;
1731;SDS011;863;52.268;8.834;2022-08-06T03:03:52;0.90;;;0.50;;
1731;SDS011;863;52.268;8.834;2022-08-06T03:06:18;1.20;;;0.60;;
1731;SDS011;863;52.268;8.834;2022-08-06T03:08:45;1.17;;;0.70;;
1731;SDS011;863;52.268;8.834;2022-08-06T03:11:10;2.80;;;0.77;;
1731;SDS011;863;52.268;8.834;2022-08-06T03:13:36;1.50;;;0.50;;
1731;SDS011;863;52.268;8.834;2022-08-06T03:16:02;1.27;;;0.50;;
1731;SDS011;863;52.268;8.834;2022-08-06T03:18:28;0.90;;;0.40;;
1731;SDS011;863;52.268;8.834;2022-08-06T03:20:54;1.10;;;0.60;;
1731;SDS011;863;52.268;8.834;2022-08-06T03:23:20;0.80;;;0.50;;
1731;SDS011;863;52.268;8.834;2022-08-06T03:25:46;1.60;;;0.53;;
1731;SDS011;863;52.268;8.834;2022-08-06T03:28:13;0.80;;;0.50;;
1731;SDS011;863;52.268;8.834;2022-08-06T03:30:39;6.60;;;1.40;;
1731;SDS011;863;52.268;8.834;2022-08-06T03:33:09;1.30;;;0.50;;
1731;SDS011;863;52.268;8.834;2022-08-06T03:35:35;2.60;;;0.50;;
1731;SDS011;863;52.268;8.834;2022-08-06T03:38:00;0.80;;;0.50;;
1731;SDS011;863;52.268;8.834;2022-08-06T03:40:26;1.47;;;0.57;;
1731;SDS011;863;52.268;8.834;2022-08-06T03:42:53;1.37;;;0.50;;
1731;SDS011;863;52.268;8.834;2022-08-06T03:45:18;1.10;;;0.70;;
1731;SDS011;863;52.268;8.834;2022-08-06T03:47:46;2.53;;;0.90;;
1731;SDS011;863;52.268;8.834;2022-08-06T03:50:15;2.13;;;1.20;;
1731;SDS011;863;52.268;8.834;2022-08-06T03:52:48;2.63;;;2.10;;
1731;SDS011;863;52.268;8.834;2022-08-06T03:55:17;4.07;;;3.67;;
1731;SDS011;863;52.268;8.834;2022-08-06T03:57:45;6.60;;;5.00;;
1731;SDS011;863;52.268;8.834;2022-08-06T04:00:12;6.40;;;5.40;;
1731;SDS011;863;52.268;8.834;2022-08-06T04:02:39;5.20;;;4.70;;
1731;SDS011;863;52.268;8.834;2022-08-06T04:05:05;4.13;;;3.73;;
1731;SDS011;863;52.268;8.834;2022-08-06T04:07:30;4.50;;;3.03;;
1731;SDS011;863;52.268;8.834;2022-08-06T04:09:56;2.70;;;2.50;;
1731;SDS011;863;52.268;8.834;2022-08-06T04:12:21;3.00;;;2.70;;
1731;SDS011;863;52.268;8.834;2022-08-06T04:14:47;4.43;;;2.60;;
1731;SDS011;863;52.268;8.834;2022-08-06T04:17:13;2.60;;;2.40;;
1731;SDS011;863;52.268;8.834;2022-08-06T04:19:39;2.87;;;2.67;;
1731;SDS011;863;52.268;8.834;2022-08-06T04:22:04;5.80;;;2.90;;
1731;SDS011;863;52.268;8.834;2022-08-06T04:24:30;3.83;;;3.07;;
1731;SDS011;863;52.268;8.834;2022-08-06T04:26:55;3.63;;;2.93;;
1731;SDS011;863;52.268;8.834;2022-08-06T04:29:21;4.87;;;3.37;;
1731;SDS011;863;52.268;8.834;2022-08-06T04:31:48;4.30;;;3.00;;
1731;SDS011;863;52.268;8.834;2022-08-06T04:34:15;2.97;;;2.53;;
1731;SDS011;863;52.268;8.834;2022-08-06T04:36:42;2.97;;;2.50;;
1731;SDS011;863;52.268;8.834;2022-08-06T04:39:07;3.10;;;2.30;;
1731;SDS011;863;52.268;8.834;2022-08-06T04:41:32;2.30;;;2.10;;
1731;SDS011;863;52.268;8.834;2022-08-06T04:43:58;2.53;;;2.00;;
1731;SDS011;863;52.268;8.834;2022-08-06T04:46:23;3.40;;;2.47;;
1731;SDS011;863;52.268;8.834;2022-08-06T04:48:49;2.60;;;2.13;;
1731;SDS011;863;52.268;8.834;2022-08-06T04:51:14;2.20;;;2.00;;
1731;SDS011;863;52.268;8.834;2022-08-06T04:53:40;3.10;;;2.80;;
1731;SDS011;863;52.268;8.834;2022-08-06T04:56:05;1.53;;;1.30;;
1731;SDS011;863;52.268;8.834;2022-08-06T04:58:31;1.83;;;1.10;;
1731;SDS011;863;52.268;8.834;2022-08-06T05:00:56;1.70;;;1.20;;
1731;SDS011;863;52.268;8.834;2022-08-06T05:03:21;2.90;;;1.30;;
1731;SDS011;863;52.268;8.834;2022-08-06T05:05:47;1.83;;;1.30;;
1731;SDS011;863;52.268;8.834;2022-08-06T05:08:15;2.80;;;1.23;;
1731;SDS011;863;52.268;8.834;2022-08-06T05:10:49;1.73;;;1.00;;
1731;SDS011;863;52.268;8.834;2022-08-06T05:13:16;1.20;;;0.87;;
1731;SDS011;863;52.268;8.834;2022-08-06T05:15:45;2.60;;;0.70;;
1731;SDS011;863;52.268;8.834;2022-08-06T05:18:18;1.10;;;0.70;;
1731;SDS011;863;52.268;8.834;2022-08-06T05:20:48;1.10;;;0.70;;
1731;SDS011;863;52.268;8.834;2022-08-06T05:23:18;1.23;;;0.70;;
1731;SDS011;863;52.268;8.834;2022-08-06T05:25:46;1.33;;;0.73;;
1731;SDS011;863;52.268;8.834;2022-08-06T05:28:11;1.03;;;0.63;;
1731;SDS011;863;52.268;8.834;2022-08-06T05:30:43;1.33;;;0.70;;
1731;SDS011;863;52.268;8.834;2022-08-06T05:33:08;1.30;;;0.90;;
1731;SDS011;863;52.268;8.834;2022-08-06T05:35:33;1.23;;;0.90;;
1731;SDS011;863;52.268;8.834;2022-08-06T05:38:00;1.87;;;0.93;;
1731;SDS011;863;52.268;8.834;2022-08-06T05:40:25;2.27;;;0.93;;
1731;SDS011;863;52.268;8.834;2022-08-06T05:42:50;2.20;;;1.00;;
1731;SDS011;863;52.268;8.834;2022-08-06T05:45:15;1.33;;;0.90;;
1731;SDS011;863;52.268;8.834;2022-08-06T05:47:44;2.27;;;1.10;;
1731;SDS011;863;52.268;8.834;2022-08-06T05:50:15;2.30;;;1.17;;
1731;SDS011;863;52.268;8.834;2022-08-06T05:52:45;1.00;;;0.80;;
1731;SDS011;863;52.268;8.834;2022-08-06T05:55:21;1.30;;;1.00;;
1731;SDS011;863;52.268;8.834;2022-08-06T05:57:51;1.43;;;0.80;;
1731;SDS011;863;52.268;8.834;2022-08-06T06:00:18;1.30;;;0.90;;
1731;SDS011;863;52.268;8.834;2022-08-06T06:02:44;1.50;;;0.70;;
1731;SDS011;863;52.268;8.834;2022-08-06T06:05:11;1.37;;;0.80;;
1731;SDS011;863;52.268;8.834;2022-08-06T06:07:36;2.30;;;0.80;;
1731;SDS011;863;52.268;8.834;2022-08-06T06:10:02;1.90;;;1.17;;
1731;SDS011;863;52.268;8.834;2022-08-06T06:12:28;1.07;;;0.70;;
1731;SDS011;863;52.268;8.834;2022-08-06T06:14:54;1.20;;;0.80;;
1731;SDS011;863;52.268;8.834;2022-08-06T06:19:48;2.17;;;1.20;;
1731;SDS011;863;52.268;8.834;2022-08-06T06:22:21;3.37;;;0.80;;
1731;SDS011;863;52.268;8.834;2022-08-06T06:25:07;0.90;;;0.60;;
1731;SDS011;863;52.268;8.834;2022-08-06T06:30:11;1.10;;;0.80;;
1731;SDS011;863;52.268;8.834;2022-08-06T06:33:15;2.20;;;0.70;;
1731;SDS011;863;52.268;8.834;2022-08-06T06:35:54;2.10;;;0.80;;
1731;SDS011;863;52.268;8.834;2022-08-06T06:38:25;1.80;;;0.80;;
1731;SDS011;863;52.268;8.834;2022-08-06T06:41:10;1.70;;;0.70;;
1731;SDS011;863;52.268;8.834;2022-08-06T06:46:27;1.27;;;0.70;;
1731;SDS011;863;52.268;8.834;2022-08-06T06:48:56;1.53;;;0.77;;
1731;SDS011;863;52.268;8.834;2022-08-06T06:51:32;1.30;;;0.60;;
1731;SDS011;863;52.268;8.834;2022-08-06T06:53:58;1.10;;;0.70;;
1731;SDS011;863;52.268;8.834;2022-08-06T06:56:29;1.87;;;0.80;;
1731;SDS011;863;52.268;8.834;2022-08-06T07:01:25;1.00;;;0.70;;
1731;SDS011;863;52.268;8.834;2022-08-06T07:03:52;1.23;;;0.60;;
1731;SDS011;863;52.268;8.834;2022-08-06T07:06:19;1.73;;;1.17;;
1731;SDS011;863;52.268;8.834;2022-08-06T07:08:46;1.40;;;0.70;;
1731;SDS011;863;52.268;8.834;2022-08-06T07:11:18;2.27;;;0.90;;
1731;SDS011;863;52.268;8.834;2022-08-06T07:13:44;1.20;;;0.60;;
1731;SDS011;863;52.268;8.834;2022-08-06T07:16:10;1.83;;;0.60;;
1731;SDS011;863;52.268;8.834;2022-08-06T07:18:37;1.60;;;0.70;;
1731;SDS011;863;52.268;8.834;2022-08-06T07:21:02;1.83;;;0.80;;
1731;SDS011;863;52.268;8.834;2022-08-06T07:23:29;3.07;;;1.00;;
1731;SDS011;863;52.268;8.834;2022-08-06T07:25:55;0.90;;;0.70;;
1731;SDS011;863;52.268;8.834;2022-08-06T07:28:20;1.13;;;0.70;;
1731;SDS011;863;52.268;8.834;2022-08-06T07:30:48;0.90;;;0.50;;
1731;SDS011;863;52.268;8.834;2022-08-06T07:33:13;1.60;;;0.60;;
1731;SDS011;863;52.268;8.834;2022-08-06T07:35:40;1.00;;;0.60;;
1731;SDS011;863;52.268;8.834;2022-08-06T07:38:06;1.20;;;0.60;;
1731;SDS011;863;52.268;8.834;2022-08-06T07:40:33;0.77;;;0.50;;
1731;SDS011;863;52.268;8.834;2022-08-06T07:44:01;2.87;;;0.50;;
1731;SDS011;863;52.268;8.834;2022-08-06T07:45:55;1.40;;;0.60;;
1731;SDS011;863;52.268;8.834;2022-08-06T07:51:18;1.17;;;0.43;;
1731;SDS011;863;52.268;8.834;2022-08-06T07:53:47;0.70;;;0.40;;
1731;SDS011;863;52.268;8.834;2022-08-06T07:56:13;1.20;;;0.80;;
1731;SDS011;863;52.268;8.834;2022-08-06T07:58:38;1.23;;;0.40;;
1731;SDS011;863;52.268;8.834;2022-08-06T08:01:05;1.00;;;0.40;;
1731;SDS011;863;52.268;8.834;2022-08-06T08:03:30;0.80;;;0.40;;
1731;SDS011;863;52.268;8.834;2022-08-06T08:06:16;0.90;;;0.53;;
1731;SDS011;863;52.268;8.834;2022-08-06T08:08:46;1.30;;;0.40;;
1731;SDS011;863;52.268;8.834;2022-08-06T08:11:12;1.00;;;0.47;;
1731;SDS011;863;52.268;8.834;2022-08-06T08:13:38;1.43;;;0.40;;
1731;SDS011;863;52.268;8.834;2022-08-06T08:16:04;2.30;;;0.60;;
1731;SDS011;863;52.268;8.834;2022-08-06T08:18:31;1.27;;;0.60;;
1731;SDS011;863;52.268;8.834;2022-08-06T08:20:57;0.97;;;0.47;;
1731;SDS011;863;52.268;8.834;2022-08-06T08:23:23;1.13;;;0.40;;
1731;SDS011;863;52.268;8.834;2022-08-06T08:25:48;0.80;;;0.50;;
1731;SDS011;863;52.268;8.834;2022-08-06T08:28:14;1.20;;;0.60;;
1731;SDS011;863;52.268;8.834;2022-08-06T08:30:39;1.53;;;0.50;;
1731;SDS011;863;52.268;8.834;2022-08-06T08:33:05;1.13;;;0.40;;
1731;SDS011;863;52.268;8.834;2022-08-06T08:35:30;2.90;;;0.60;;
1731;SDS011;863;52.268;8.834;2022-08-06T08:37:55;1.20;;;0.50;;
1731;SDS011;863;52.268;8.834;2022-08-06T08:40:21;1.10;;;0.57;;
1731;SDS011;863;52.268;8.834;2022-08-06T08:42:48;0.90;;;0.50;;
1731;SDS011;863;52.268;8.834;2022-08-06T08:45:13;3.03;;;0.50;;
1731;SDS011;863;52.268;8.834;2022-08-06T08:47:43;0.80;;;0.40;;
1731;SDS011;863;52.268;8.834;2022-08-06T08:50:09;0.80;;;0.40;;
1731;SDS011;863;52.268;8.834;2022-08-06T08:52:34;1.43;;;0.50;;
1731;SDS011;863;52.268;8.834;2022-08-06T08:55:04;1.40;;;0.50;;
1731;SDS011;863;52.268;8.834;2022-08-06T08:57:30;0.80;;;0.30;;
1731;SDS011;863;52.268;8.834;2022-08-06T08:59:55;0.83;;;0.30;;
1731;SDS011;863;52.268;8.834;2022-08-06T09:02:21;1.00;;;0.47;;
1731;SDS011;863;52.268;8.834;2022-08-06T09:04:48;0.80;;;0.40;;
1731;SDS011;863;52.268;8.834;2022-08-06T09:07:13;0.83;;;0.37;;
1731;SDS011;863;52.268;8.834;2022-08-06T09:09:39;1.83;;;0.60;;
1731;SDS011;863;52.268;8.834;2022-08-06T09:12:04;2.23;;;0.40;;
1731;SDS011;863;52.268;8.834;2022-08-06T09:14:30;1.27;;;0.40;;
1731;SDS011;863;52.268;8.834;2022-08-06T09:16:56;0.80;;;0.40;;
1731;SDS011;863;52.268;8.834;2022-08-06T09:19:22;0.70;;;0.40;;
1731;SDS011;863;52.268;8.834;2022-08-06T09:21:47;0.70;;;0.33;;
1731;SDS011;863;52.268;8.834;2022-08-06T09:24:12;1.60;;;0.57;;
1731;SDS011;863;52.268;8.834;2022-08-06T09:26:37;0.93;;;0.30;;
1731;SDS011;863;52.268;8.834;2022-08-06T09:29:14;0.87;;;0.40;;
1731;SDS011;863;52.268;8.834;2022-08-06T09:31:44;0.80;;;0.30;;
1731;SDS011;863;52.268;8.834;2022-08-06T09:34:09;0.80;;;0.30;;
1731;SDS011;863;52.268;8.834;2022-08-06T09:36:41;1.00;;;0.40;;
1731;SDS011;863;52.268;8.834;2022-08-06T09:39:07;0.80;;;0.30;;
1731;SDS011;863;52.268;8.834;2022-08-06T09:41:32;0.73;;;0.30;;
1731;SDS011;863;52.268;8.834;2022-08-06T09:43:57;1.00;;;0.50;;
1731;SDS011;863;52.268;8.834;2022-08-06T09:49:07;1.97;;;0.40;;
1731;SDS011;863;52.268;8.834;2022-08-06T09:51:32;0.80;;;0.30;;
1731;SDS011;863;52.268;8.834;2022-08-06T09:54:00;3.13;;;0.40;;
1731;SDS011;863;52.268;8.834;2022-08-06T09:56:25;0.90;;;0.40;;
1731;SDS011;863;52.268;8.834;2022-08-06T09:58:56;1.17;;;0.30;;
1731;SDS011;863;52.268;8.834;2022-08-06T10:01:22;0.90;;;0.40;;
1731;SDS011;863;52.268;8.834;2022-08-06T10:03:48;0.90;;;0.30;;
1731;SDS011;863;52.268;8.834;2022-08-06T10:06:14;1.13;;;0.40;;
1731;SDS011;863;52.268;8.834;2022-08-06T10:08:40;0.90;;;0.43;;
1731;SDS011;863;52.268;8.834;2022-08-06T10:11:05;0.80;;;0.30;;
1731;SDS011;863;52.268;8.834;2022-08-06T10:13:31;0.80;;;0.30;;
1731;SDS011;863;52.268;8.834;2022-08-06T10:15:58;0.77;;;0.30;;
1731;SDS011;863;52.268;8.834;2022-08-06T10:23:26;0.93;;;0.50;;
1731;SDS011;863;52.268;8.834;2022-08-06T10:25:51;1.50;;;1.07;;
1731;SDS011;863;52.268;8.834;2022-08-06T10:28:17;2.50;;;0.40;;
1731;SDS011;863;52.268;8.834;2022-08-06T10:30:42;1.07;;;0.60;;
1731;SDS011;863;52.268;8.834;2022-08-06T10:33:08;1.40;;;0.40;;
1731;SDS011;863;52.268;8.834;2022-08-06T10:35:35;0.90;;;0.37;;
1731;SDS011;863;52.268;8.834;2022-08-06T10:38:02;0.90;;;0.40;;
1731;SDS011;863;52.268;8.834;2022-08-06T10:40:28;0.90;;;0.30;;
1731;SDS011;863;52.268;8.834;2022-08-06T10:42:54;0.80;;;0.30;;
1731;SDS011;863;52.268;8.834;2022-08-06T10:45:20;0.90;;;0.40;;
1731;SDS011;863;52.268;8.834;2022-08-06T10:47:46;0.80;;;0.30;;
1731;SDS011;863;52.268;8.834;2022-08-06T10:50:11;0.90;;;0.33;;
1731;SDS011;863;52.268;8.834;2022-08-06T10:52:37;1.00;;;0.30;;
1731;SDS011;863;52.268;8.834;2022-08-06T10:55:03;0.80;;;0.30;;
1731;SDS011;863;52.268;8.834;2022-08-06T10:57:28;0.90;;;0.30;;
1731;SDS011;863;52.268;8.834;2022-08-06T10:59:54;1.00;;;0.37;;
1731;SDS011;863;52.268;8.834;2022-08-06T11:05:08;0.93;;;0.40;;
1731;SDS011;863;52.268;8.834;2022-08-06T11:15:10;0.83;;;0.30;;
1731;SDS011;863;52.268;8.834;2022-08-06T11:20:07;0.70;;;0.30;;
1731;SDS011;863;52.268;8.834;2022-08-06T11:22:39;1.00;;;0.40;;
1731;SDS011;863;52.268;8.834;2022-08-06T11:25:06;1.23;;;0.30;;
1731;SDS011;863;52.268;8.834;2022-08-06T11:27:53;0.60;;;0.30;;
1731;SDS011;863;52.268;8.834;2022-08-06T11:30:19;0.80;;;0.40;;
1731;SDS011;863;52.268;8.834;2022-08-06T11:32:45;0.80;;;0.30;;
1731;SDS011;863;52.268;8.834;2022-08-06T11:38:10;0.70;;;0.30;;
1731;SDS011;863;52.268;8.834;2022-08-06T11:40:54;1.10;;;0.30;;
1731;SDS011;863;52.268;8.834;2022-08-06T11:46:24;0.70;;;0.30;;
1731;SDS011;863;52.268;8.834;2022-08-06T12:02:08;0.90;;;0.30;;
1731;SDS011;863;52.268;8.834;2022-08-06T12:09:44;0.80;;;0.40;;
1731;SDS011;863;52.268;8.834;2022-08-06T12:14:54;2.40;;;0.30;;
1731;SDS011;863;52.268;8.834;2022-08-06T12:17:21;1.73;;;0.40;;
1731;SDS011;863;52.268;8.834;2022-08-06T12:19:52;0.93;;;0.40;;
1731;SDS011;863;52.268;8.834;2022-08-06T12:22:18;0.70;;;0.30;;
1731;SDS011;863;52.268;8.834;2022-08-06T12:24:45;1.00;;;0.30;;
1731;SDS011;863;52.268;8.834;2022-08-06T12:27:11;0.70;;;0.30;;
1731;SDS011;863;52.268;8.834;2022-08-06T12:29:36;0.83;;;0.30;;
1731;SDS011;863;52.268;8.834;2022-08-06T12:32:11;0.83;;;0.30;;
1731;SDS011;863;52.268;8.834;2022-08-06T12:34:43;0.70;;;0.40;;
1731;SDS011;863;52.268;8.834;2022-08-06T12:37:08;0.80;;;0.30;;
1731;SDS011;863;52.268;8.834;2022-08-06T12:39:40;0.80;;;0.40;;
1731;SDS011;863;52.268;8.834;2022-08-06T12:42:24;3.70;;;0.60;;
1731;SDS011;863;52.268;8.834;2022-08-06T12:44:50;1.47;;;0.50;;
1731;SDS011;863;52.268;8.834;2022-08-06T12:47:15;1.13;;;0.30;;
1731;SDS011;863;52.268;8.834;2022-08-06T12:49:41;0.80;;;0.30;;
1731;SDS011;863;52.268;8.834;2022-08-06T12:52:15;0.70;;;0.40;;
1731;SDS011;863;52.268;8.834;2022-08-06T12:54:45;0.70;;;0.30;;
1731;SDS011;863;52.268;8.834;2022-08-06T12:57:23;0.73;;;0.30;;
1731;SDS011;863;52.268;8.834;2022-08-06T12:59:49;0.80;;;0.40;;
1731;SDS011;863;52.268;8.834;2022-08-06T13:02:16;0.87;;;0.37;;
1731;SDS011;863;52.268;8.834;2022-08-06T13:04:43;0.80;;;0.47;;
1731;SDS011;863;52.268;8.834;2022-08-06T13:07:09;0.70;;;0.30;;
1731;SDS011;863;52.268;8.834;2022-08-06T13:09:35;1.20;;;0.40;;
1731;SDS011;863;52.268;8.834;2022-08-06T13:14:48;1.47;;;0.43;;
1731;SDS011;863;52.268;8.834;2022-08-06T13:17:13;0.70;;;0.40;;
1731;SDS011;863;52.268;8.834;2022-08-06T13:19:49;0.80;;;0.40;;
1731;SDS011;863;52.268;8.834;2022-08-06T13:22:15;0.83;;;0.40;;
1731;SDS011;863;52.268;8.834;2022-08-06T13:24:40;1.17;;;0.40;;
1731;SDS011;863;52.268;8.834;2022-08-06T13:27:06;0.80;;;0.40;;
1731;SDS011;863;52.268;8.834;2022-08-06T13:29:31;0.70;;;0.40;;
1731;SDS011;863;52.268;8.834;2022-08-06T13:31:57;0.70;;;0.20;;
1731;SDS011;863;52.268;8.834;2022-08-06T13:34:22;1.00;;;0.30;;
1731;SDS011;863;52.268;8.834;2022-08-06T13:36:55;0.70;;;0.40;;
1731;SDS011;863;52.268;8.834;2022-08-06T13:44:30;1.30;;;0.60;;
1731;SDS011;863;52.268;8.834;2022-08-06T13:46:55;2.10;;;0.40;;
1731;SDS011;863;52.268;8.834;2022-08-06T13:49:20;0.80;;;0.37;;
1731;SDS011;863;52.268;8.834;2022-08-06T13:51:46;1.23;;;0.40;;
1731;SDS011;863;52.268;8.834;2022-08-06T13:54:11;0.80;;;0.53;;
1731;SDS011;863;52.268;8.834;2022-08-06T13:56:36;1.02;;;0.47;;
1731;SDS011;863;52.268;8.834;2022-08-06T13:59:01;1.23;;;0.30;;
1731;SDS011;863;52.268;8.834;2022-08-06T14:01:26;1.43;;;0.50;;
1731;SDS011;863;52.268;8.834;2022-08-06T14:03:52;0.70;;;0.30;;
1731;SDS011;863;52.268;8.834;2022-08-06T14:06:17;0.70;;;0.30;;
1731;SDS011;863;52.268;8.834;2022-08-06T14:08:42;0.90;;;0.40;;
1731;SDS011;863;52.268;8.834;2022-08-06T14:11:08;0.87;;;0.50;;
1731;SDS011;863;52.268;8.834;2022-08-06T14:13:33;1.60;;;0.47;;
1731;SDS011;863;52.268;8.834;2022-08-06T14:15:58;0.80;;;0.40;;
1731;SDS011;863;52.268;8.834;2022-08-06T14:18:25;0.73;;;0.40;;
1731;SDS011;863;52.268;8.834;2022-08-06T14:20:51;0.80;;;0.30;;
1731;SDS011;863;52.268;8.834;2022-08-06T14:23:16;0.70;;;0.30;;
1731;SDS011;863;52.268;8.834;2022-08-06T14:25:41;0.80;;;0.40;;
1731;SDS011;863;52.268;8.834;2022-08-06T14:28:07;1.03;;;0.30;;
1731;SDS011;863;52.268;8.834;2022-08-06T14:30:32;0.80;;;0.50;;
1731;SDS011;863;52.268;8.834;2022-08-06T14:33:01;0.90;;;0.50;;
1731;SDS011;863;52.268;8.834;2022-08-06T14:35:26;1.80;;;0.50;;
1731;SDS011;863;52.268;8.834;2022-08-06T14:37:52;2.50;;;0.40;;
1731;SDS011;863;52.268;8.834;2022-08-06T14:40:19;0.97;;;0.50;;
1731;SDS011;863;52.268;8.834;2022-08-06T14:43:03;0.80;;;0.40;;
1731;SDS011;863;52.268;8.834;2022-08-06T14:45:47;1.17;;;0.40;;
1731;SDS011;863;52.268;8.834;2022-08-06T14:48:12;1.13;;;0.70;;
1731;SDS011;863;52.268;8.834;2022-08-06T14:50:37;0.70;;;0.30;;
1731;SDS011;863;52.268;8.834;2022-08-06T14:53:02;1.10;;;0.30;;
1731;SDS011;863;52.268;8.834;2022-08-06T14:55:27;1.00;;;0.50;;
1731;SDS011;863;52.268;8.834;2022-08-06T14:57:52;1.33;;;0.30;;
1731;SDS011;863;52.268;8.834;2022-08-06T15:00:17;0.80;;;0.40;;
1731;SDS011;863;52.268;8.834;2022-08-06T15:02:43;0.70;;;0.30;;
1731;SDS011;863;52.268;8.834;2022-08-06T15:05:08;0.90;;;0.40;;
1731;SDS011;863;52.268;8.834;2022-08-06T15:07:33;0.70;;;0.30;;
1731;SDS011;863;52.268;8.834;2022-08-06T15:09:59;1.20;;;0.40;;
1731;SDS011;863;52.268;8.834;2022-08-06T15:12:24;0.90;;;0.47;;
1731;SDS011;863;52.268;8.834;2022-08-06T15:14:49;1.47;;;0.47;;
1731;SDS011;863;52.268;8.834;2022-08-06T15:17:14;0.90;;;0.30;;
1731;SDS011;863;52.268;8.834;2022-08-06T15:19:39;1.07;;;0.40;;
1731;SDS011;863;52.268;8.834;2022-08-06T15:22:05;0.70;;;0.27;;
1731;SDS011;863;52.268;8.834;2022-08-06T15:24:30;0.60;;;0.30;;
1731;SDS011;863;52.268;8.834;2022-08-06T15:26:57;0.60;;;0.27;;
1731;SDS011;863;52.268;8.834;2022-08-06T15:29:22;0.80;;;0.40;;
1731;SDS011;863;52.268;8.834;2022-08-06T15:31:51;0.70;;;0.30;;
1731;SDS011;863;52.268;8.834;2022-08-06T15:34:16;0.90;;;0.27;;
1731;SDS011;863;52.268;8.834;2022-08-06T15:36:41;0.80;;;0.40;;
1731;SDS011;863;52.268;8.834;2022-08-06T15:39:07;1.03;;;0.40;;
1731;SDS011;863;52.268;8.834;2022-08-06T15:41:32;1.00;;;0.40;;
1731;SDS011;863;52.268;8.834;2022-08-06T15:43:58;1.07;;;0.40;;
1731;SDS011;863;52.268;8.834;2022-08-06T15:46:23;0.80;;;0.50;;
1731;SDS011;863;52.268;8.834;2022-08-06T15:48:49;0.77;;;0.40;;
1731;SDS011;863;52.268;8.834;2022-08-06T15:51:14;0.70;;;0.30;;
1731;SDS011;863;52.268;8.834;2022-08-06T15:53:39;0.97;;;0.43;;
1731;SDS011;863;52.268;8.834;2022-08-06T15:56:05;0.90;;;0.40;;
1731;SDS011;863;52.268;8.834;2022-08-06T15:58:30;3.13;;;0.57;;
1731;SDS011;863;52.268;8.834;2022-08-06T16:00:55;0.90;;;0.30;;
1731;SDS011;863;52.268;8.834;2022-08-06T16:03:20;0.80;;;0.40;;
1731;SDS011;863;52.268;8.834;2022-08-06T16:05:45;0.80;;;0.40;;
1731;SDS011;863;52.268;8.834;2022-08-06T16:08:11;0.90;;;0.40;;
1731;SDS011;863;52.268;8.834;2022-08-06T16:10:40;0.70;;;0.30;;
1731;SDS011;863;52.268;8.834;2022-08-06T16:13:06;0.73;;;0.30;;
1731;SDS011;863;52.268;8.834;2022-08-06T16:15:31;1.43;;;0.67;;
1731;SDS011;863;52.268;8.834;2022-08-06T16:17:56;0.80;;;0.40;;
1731;SDS011;863;52.268;8.834;2022-08-06T16:20:22;1.83;;;0.50;;
1731;SDS011;863;52.268;8.834;2022-08-06T16:22:47;0.80;;;0.60;;
1731;SDS011;863;52.268;8.834;2022-08-06T16:25:12;1.67;;;0.50;;
1731;SDS011;863;52.268;8.834;2022-08-06T16:27:38;1.00;;;0.80;;
1731;SDS011;863;52.268;8.834;2022-08-06T16:30:03;0.70;;;0.30;;
1731;SDS011;863;52.268;8.834;2022-08-06T16:32:29;0.90;;;0.50;;
1731;SDS011;863;52.268;8.834;2022-08-06T16:34:54;1.43;;;0.40;;
1731;SDS011;863;52.268;8.834;2022-08-06T16:37:24;0.80;;;0.40;;
1731;SDS011;863;52.268;8.834;2022-08-06T16:39:50;1.00;;;0.40;;
1731;SDS011;863;52.268;8.834;2022-08-06T16:42:15;1.07;;;0.40;;
1731;SDS011;863;52.268;8.834;2022-08-06T16:44:41;1.63;;;0.70;;
1731;SDS011;863;52.268;8.834;2022-08-06T16:47:06;1.10;;;0.47;;
1731;SDS011;863;52.268;8.834;2022-08-06T16:49:31;0.87;;;0.30;;
1731;SDS011;863;52.268;8.834;2022-08-06T16:51:57;1.30;;;0.50;;